createdAt,value
2023-05-23T00:03:27.892Z,12.40
2023-05-23T00:08:31.325Z,12.30
2023-05-23T00:13:35.175Z,12.20
2023-05-23T00:18:40.664Z,12.10
2023-05-23T00:23:44.235Z,12.00
2023-05-23T00:28:47.833Z,12.00
2023-05-23T00:33:51.386Z,11.90
2023-05-23T00:38:54.783Z,11.80
2023-05-23T00:44:00.869Z,11.70
2023-05-23T00:49:04.956Z,11.60
2023-05-23T00:54:08.302Z,11.60
2023-05-23T00:59:12.995Z,11.50
2023-05-23T01:04:17.143Z,11.50
2023-05-23T01:09:21.997Z,11.40
2023-05-23T01:14:46.833Z,11.30
2023-05-23T01:20:26.154Z,11.20
2023-05-23T01:25:51.501Z,11.10
2023-05-23T01:30:58.109Z,11.00
2023-05-23T01:36:06.167Z,10.90
2023-05-23T01:41:09.673Z,10.80
2023-05-23T01:46:13.967Z,10.80
2023-05-23T01:51:17.601Z,10.70
2023-05-23T01:56:22.160Z,10.70
2023-05-23T02:01:25.801Z,10.60
2023-05-23T02:06:29.176Z,10.60
2023-05-23T02:11:32.450Z,10.50
2023-05-23T02:16:36.973Z,10.50
2023-05-23T02:21:40.187Z,10.40
2023-05-23T02:26:43.535Z,10.30
2023-05-23T02:31:46.941Z,10.30
2023-05-23T02:36:50.468Z,10.20
2023-05-23T02:41:53.706Z,10.20
2023-05-23T02:46:57.218Z,10.20
2023-05-23T02:52:00.483Z,10.10
2023-05-23T02:57:04.753Z,10.10
2023-05-23T03:02:08.132Z,10.00
2023-05-23T03:07:27.070Z,10.00
2023-05-23T03:12:31.258Z,10.10
2023-05-23T03:17:34.616Z,10.10
2023-05-23T03:22:38.252Z,10.00
2023-05-23T03:27:41.817Z,10.00
2023-05-23T03:32:45.387Z,10.10
2023-05-23T03:37:48.719Z,10.20
2023-05-23T03:43:05.219Z,10.30
2023-05-23T03:48:08.717Z,10.60
2023-05-23T03:53:12.034Z,10.80
2023-05-23T03:58:15.516Z,11.10
2023-05-23T04:03:19.278Z,11.30
2023-05-23T04:08:22.680Z,11.50
2023-05-23T04:13:26.883Z,11.60
2023-05-23T04:18:31.011Z,11.90
2023-05-23T04:23:34.236Z,12.10
2023-05-23T04:28:38.182Z,12.30
2023-05-23T04:33:41.753Z,12.60
2023-05-23T04:38:44.955Z,13.30
2023-05-23T04:43:48.178Z,15.10
2023-05-23T04:48:51.440Z,16.20
2023-05-23T04:53:54.705Z,17.10
2023-05-23T04:58:58.307Z,18.00
2023-05-23T05:04:01.590Z,18.50
2023-05-23T05:09:05.143Z,18.90
2023-05-23T05:14:08.407Z,18.90
2023-05-23T05:19:11.785Z,18.70
2023-05-23T05:24:16.200Z,18.60
2023-05-23T05:29:19.558Z,18.40
2023-05-23T05:34:23.300Z,18.40
2023-05-23T05:39:26.932Z,18.30
2023-05-23T05:44:30.203Z,17.90
2023-05-23T05:49:36.250Z,17.90
2023-05-23T05:54:39.761Z,18.00
2023-05-23T05:59:42.910Z,18.20
2023-05-23T06:04:46.300Z,18.50
2023-05-23T06:09:49.549Z,18.80
2023-05-23T06:14:52.827Z,19.00
2023-05-23T06:19:56.065Z,19.30
2023-05-23T06:24:59.467Z,19.60
2023-05-23T06:30:03.852Z,19.80
2023-05-23T06:35:07.645Z,20.10
2023-05-23T06:40:12.067Z,20.30
2023-05-23T06:45:16.764Z,20.40
2023-05-23T06:50:20.456Z,20.40
2023-05-23T06:55:24.687Z,20.60
2023-05-23T07:00:28.395Z,20.90
2023-05-23T07:05:33.677Z,21.30
2023-05-23T07:10:37.220Z,21.50
2023-05-23T07:15:40.312Z,21.70
2023-05-23T07:20:43.872Z,22.00
2023-05-23T07:26:01.107Z,22.20
2023-05-23T07:31:06.071Z,22.50
2023-05-23T07:36:09.976Z,22.90
2023-05-23T07:41:13.852Z,23.00
2023-05-23T07:46:17.544Z,23.00
2023-05-23T07:51:21.814Z,22.70
2023-05-23T07:56:25.020Z,22.70
2023-05-23T08:01:28.814Z,23.00
2023-05-23T08:06:32.393Z,23.20
2023-05-23T08:11:35.820Z,23.40
2023-05-23T08:16:39.549Z,23.50
2023-05-23T08:21:43.640Z,23.60
2023-05-23T08:26:47.596Z,23.60
2023-05-23T08:31:50.999Z,23.50
2023-05-23T08:36:54.212Z,23.30
2023-05-23T08:41:58.101Z,23.40
2023-05-23T08:47:08.175Z,23.60
2023-05-23T08:52:14.074Z,23.60
2023-05-23T08:57:18.355Z,23.80
2023-05-23T09:02:21.816Z,24.10
2023-05-23T09:07:25.663Z,24.50
2023-05-23T09:12:29.994Z,24.70
2023-05-23T09:17:33.957Z,24.70
2023-05-23T09:22:37.223Z,24.80
2023-05-23T09:27:41.592Z,24.70
2023-05-23T09:33:04.698Z,24.40
2023-05-23T09:38:09.127Z,24.60
2023-05-23T09:43:12.755Z,24.20
2023-05-23T09:48:16.315Z,24.60
2023-05-23T09:53:22.059Z,24.80
2023-05-23T09:58:26.593Z,24.80
2023-05-23T10:03:46.418Z,24.70
2023-05-23T10:09:05.198Z,24.50
2023-05-23T10:14:11.256Z,24.50
2023-05-23T10:19:39.130Z,24.90
2023-05-23T10:24:45.296Z,25.10
2023-05-23T10:29:49.093Z,25.30
2023-05-23T10:34:58.254Z,25.10
2023-05-23T10:40:06.630Z,24.90
2023-05-23T10:45:24.730Z,25.10
2023-05-23T10:50:34.980Z,25.10
2023-05-23T10:55:39.178Z,24.60
2023-05-23T11:00:55.485Z,24.50
2023-05-23T11:06:08.532Z,24.90
2023-05-23T11:11:11.839Z,25.50
2023-05-23T11:16:32.338Z,26.10
2023-05-23T11:21:37.636Z,25.70
2023-05-23T11:26:41.055Z,25.40
2023-05-23T11:31:44.426Z,25.10
2023-05-23T11:36:47.713Z,24.80
2023-05-23T11:42:04.182Z,24.80
2023-05-23T11:47:08.840Z,24.90
2023-05-23T11:52:12.158Z,24.60
2023-05-23T11:57:15.474Z,24.60
2023-05-23T12:02:18.699Z,24.60
2023-05-23T12:07:21.963Z,24.60
2023-05-23T12:12:25.482Z,24.60
2023-05-23T12:17:28.874Z,24.60
2023-05-23T12:22:32.655Z,24.60
2023-05-23T12:27:37.610Z,24.50
2023-05-23T12:32:46.352Z,24.60
2023-05-23T12:37:49.828Z,24.60
2023-05-23T12:42:57.774Z,24.40
2023-05-23T12:48:02.514Z,24.20
2023-05-23T12:53:05.925Z,24.10
2023-05-23T12:58:09.095Z,24.00
2023-05-23T13:03:12.755Z,23.90
2023-05-23T13:08:15.882Z,23.80
2023-05-23T13:13:19.327Z,23.90
2023-05-23T13:18:22.657Z,24.00
2023-05-23T13:23:26.588Z,24.20
2023-05-23T13:28:29.811Z,24.40
2023-05-23T13:33:33.218Z,24.50
2023-05-23T13:38:36.707Z,24.60
2023-05-23T13:43:40.107Z,24.70
2023-05-23T13:48:43.425Z,24.90
2023-05-23T13:53:46.946Z,24.70
2023-05-23T13:58:50.355Z,24.80
2023-05-23T14:03:53.825Z,24.80
2023-05-23T14:08:57.489Z,24.80
2023-05-23T14:14:01.065Z,24.90
2023-05-23T14:19:04.942Z,24.80
2023-05-23T14:24:08.487Z,24.80
2023-05-23T14:29:11.670Z,24.90
2023-05-23T14:34:14.949Z,24.70
2023-05-23T14:39:18.519Z,24.50
2023-05-23T14:44:21.596Z,24.50
2023-05-23T14:49:24.800Z,24.50
2023-05-23T14:54:27.992Z,24.60
2023-05-23T14:59:32.395Z,24.60
2023-05-23T15:04:38.217Z,24.60
2023-05-23T15:09:41.938Z,24.60
2023-05-23T15:14:45.274Z,24.50
2023-05-23T15:19:48.448Z,24.50
2023-05-23T15:24:51.717Z,24.60
2023-05-23T15:29:54.992Z,24.70
2023-05-23T15:34:58.291Z,24.70
2023-05-23T15:40:02.782Z,24.60
2023-05-23T15:45:06.725Z,24.30
2023-05-23T15:50:12.879Z,24.50
2023-05-23T15:55:17.853Z,24.70
2023-05-23T16:00:21.858Z,24.80
2023-05-23T16:05:26.166Z,24.60
2023-05-23T16:10:29.457Z,24.60
2023-05-23T16:15:32.950Z,24.40
2023-05-23T16:20:36.401Z,24.30
2023-05-23T16:25:39.914Z,24.20
2023-05-23T16:30:43.220Z,24.10
2023-05-23T16:35:46.519Z,24.00
2023-05-23T16:40:49.792Z,24.00
2023-05-23T16:45:53.128Z,24.10
2023-05-23T16:50:57.846Z,23.70
2023-05-23T16:56:01.487Z,23.40
2023-05-23T17:01:05.392Z,23.20
2023-05-23T17:06:08.629Z,23.00
2023-05-23T17:11:11.753Z,22.80
2023-05-23T17:16:20.454Z,22.70
2023-05-23T17:21:23.913Z,22.70
2023-05-23T17:26:28.063Z,22.60
2023-05-23T17:31:31.867Z,22.70
2023-05-23T17:36:35.861Z,22.70
2023-05-23T17:41:39.161Z,22.60
2023-05-23T17:46:42.633Z,22.50
2023-05-23T17:51:46.778Z,22.20
2023-05-23T17:56:50.156Z,22.10
2023-05-23T18:01:53.439Z,22.10
2023-05-23T18:06:56.654Z,21.90
2023-05-23T18:12:00.141Z,21.80
2023-05-23T18:17:04.004Z,21.60
2023-05-23T18:22:07.270Z,21.50
2023-05-23T18:27:10.552Z,21.40
2023-05-23T18:32:14.954Z,21.30
2023-05-23T18:37:18.565Z,21.20
2023-05-23T18:42:22.546Z,21.10
2023-05-23T18:47:25.853Z,21.00
2023-05-23T18:52:31.071Z,20.90
2023-05-23T18:57:34.572Z,20.80
2023-05-23T19:02:39.957Z,20.70
2023-05-23T19:07:44.434Z,20.60
2023-05-23T19:12:48.822Z,20.50
2023-05-23T19:17:52.341Z,20.40
2023-05-23T19:22:56.125Z,20.20
2023-05-23T19:27:59.361Z,20.10
2023-05-23T19:33:03.006Z,19.90
2023-05-23T19:38:06.552Z,19.80
2023-05-23T19:43:09.914Z,19.70
2023-05-23T19:48:13.338Z,19.60
2023-05-23T19:53:17.393Z,19.50
2023-05-23T19:58:20.719Z,19.40
2023-05-23T20:03:24.811Z,19.40
2023-05-23T20:08:28.235Z,19.30
2023-05-23T20:13:33.141Z,19.10
2023-05-23T20:18:36.811Z,19.10
2023-05-23T20:23:43.803Z,19.00
2023-05-23T20:28:47.035Z,18.90
2023-05-23T20:33:50.428Z,18.80
2023-05-23T20:38:54.144Z,18.70
2023-05-23T20:43:57.461Z,18.70
2023-05-23T20:49:01.693Z,18.60
2023-05-23T20:54:05.806Z,18.50
2023-05-23T20:59:12.638Z,18.40
2023-05-23T21:04:18.125Z,18.30
2023-05-23T21:09:22.280Z,18.30
2023-05-23T21:14:25.450Z,18.20
2023-05-23T21:19:28.748Z,18.20
2023-05-23T21:24:31.893Z,18.10
2023-05-23T21:29:36.016Z,18.00
2023-05-23T21:34:39.400Z,18.00
2023-05-23T21:39:51.161Z,17.90
2023-05-23T21:44:55.902Z,17.90
2023-05-23T21:49:59.609Z,18.00
2023-05-23T21:55:03.083Z,18.00
2023-05-23T22:00:12.634Z,18.00
2023-05-23T22:05:16.239Z,18.00
2023-05-23T22:10:19.776Z,17.90
2023-05-23T22:15:22.914Z,17.80
2023-05-23T22:20:26.498Z,17.70
2023-05-23T22:25:32.827Z,17.60
2023-05-23T22:30:36.234Z,17.40
2023-05-23T22:35:45.888Z,17.40
2023-05-23T22:40:49.077Z,17.30
2023-05-23T22:45:52.909Z,17.30
2023-05-23T22:50:57.457Z,17.30
2023-05-23T22:56:00.616Z,17.30
2023-05-23T23:01:03.900Z,17.30
2023-05-23T23:06:08.003Z,17.30
2023-05-23T23:11:11.227Z,17.20
2023-05-23T23:16:14.455Z,17.10
2023-05-23T23:21:17.738Z,17.00
2023-05-23T23:26:22.026Z,16.90
2023-05-23T23:31:25.410Z,16.80
2023-05-23T23:36:28.678Z,16.90
2023-05-23T23:41:31.814Z,16.90
2023-05-23T23:46:35.096Z,16.90
2023-05-23T23:51:38.679Z,16.80
2023-05-23T23:56:42.211Z,16.80
